createdAt,value
2019-04-10T00:01:55.330Z,6.67
2019-04-10T00:04:25.202Z,6.67
2019-04-10T00:07:01.997Z,7.28
2019-04-10T00:09:25.275Z,7.33
2019-04-10T00:11:54.267Z,8.60
2019-04-10T00:14:24.054Z,7.85
2019-04-10T00:16:54.256Z,8.38
2019-04-10T00:19:23.703Z,6.83
2019-04-10T00:21:53.534Z,8.35
2019-04-10T00:24:23.931Z,8.38
2019-04-10T00:26:53.037Z,7.85
2019-04-10T00:29:22.419Z,8.03
2019-04-10T00:31:51.532Z,7.50
2019-04-10T00:34:21.225Z,7.50
2019-04-10T00:36:51.324Z,8.28
2019-04-10T00:39:20.556Z,9.68
2019-04-10T00:41:49.856Z,8.75
2019-04-10T00:44:19.567Z,6.95
2019-04-10T00:46:48.745Z,7.40
2019-04-10T00:49:17.761Z,7.97
2019-04-10T00:51:47.785Z,5.30
2019-04-10T00:54:18.093Z,8.03
2019-04-10T00:56:48.509Z,8.18
2019-04-10T00:59:17.855Z,6.62
2019-04-10T01:01:47.791Z,6.00
2019-04-10T01:04:16.854Z,7.83
2019-04-10T01:06:46.303Z,5.55
2019-04-10T01:09:15.633Z,6.80
2019-04-10T01:11:45.548Z,7.08
2019-04-10T01:14:15.792Z,8.43
2019-04-10T01:16:45.175Z,8.20
2019-04-10T01:19:15.433Z,6.97
2019-04-10T01:21:44.795Z,9.78
2019-04-10T01:24:13.899Z,8.63
2019-04-10T01:26:43.398Z,7.83
2019-04-10T01:29:13.353Z,8.28
2019-04-10T01:31:43.439Z,8.50
2019-04-10T01:34:13.516Z,8.13
2019-04-10T01:36:42.641Z,13.25
2019-04-10T01:39:13.797Z,9.88
2019-04-10T01:41:43.888Z,11.38
2019-04-10T01:44:13.181Z,9.85
2019-04-10T01:46:42.503Z,10.30
2019-04-10T01:49:11.595Z,9.15
2019-04-10T01:51:41.393Z,11.70
2019-04-10T01:54:10.996Z,8.15
2019-04-10T01:56:39.918Z,8.83
2019-04-10T01:59:09.772Z,8.73
2019-04-10T02:01:50.428Z,9.58
2019-04-10T02:04:19.688Z,9.88
2019-04-10T02:06:49.521Z,8.58
2019-04-10T02:09:19.224Z,8.05
2019-04-10T02:11:48.401Z,8.13
2019-04-10T02:14:18.883Z,7.47
2019-04-10T02:16:48.023Z,11.20
2019-04-10T02:19:17.121Z,8.30
2019-04-10T02:21:46.419Z,7.95
2019-04-10T02:24:16.619Z,6.95
2019-04-10T02:26:45.725Z,7.95
2019-04-10T02:29:15.569Z,6.55
2019-04-10T02:31:46.301Z,9.90
2019-04-10T02:34:17.093Z,11.35
2019-04-10T02:36:46.952Z,7.08
2019-04-10T02:39:25.594Z,7.53
2019-04-10T02:41:46.764Z,6.33
2019-04-10T02:44:16.305Z,6.67
2019-04-10T02:46:47.142Z,9.75
2019-04-10T02:49:16.425Z,7.25
2019-04-10T02:51:47.428Z,10.15
2019-04-10T02:54:17.587Z,4.62
2019-04-10T02:56:47.931Z,6.75
2019-04-10T02:59:18.631Z,7.78
2019-04-10T03:01:49.607Z,6.45
2019-04-10T03:04:20.431Z,7.00
2019-04-10T03:06:49.582Z,7.05
2019-04-10T03:09:37.145Z,5.35
2019-04-10T03:11:50.026Z,5.15
2019-04-10T03:14:20.981Z,5.70
2019-04-10T03:16:49.648Z,5.05
2019-04-10T03:19:19.191Z,6.55
2019-04-10T03:21:48.662Z,6.15
2019-04-10T03:24:17.752Z,6.40
2019-04-10T03:26:47.839Z,7.83
2019-04-10T03:29:17.798Z,9.55
2019-04-10T03:31:48.208Z,8.48
2019-04-10T03:34:28.166Z,7.00
2019-04-10T03:36:56.338Z,6.58
2019-04-10T03:39:25.790Z,7.90
2019-04-10T03:41:55.140Z,7.08
2019-04-10T03:44:24.991Z,5.97
2019-04-10T03:46:55.191Z,6.33
2019-04-10T03:49:25.453Z,6.25
2019-04-10T03:51:54.633Z,6.03
2019-04-10T03:54:23.935Z,5.35
2019-04-10T03:56:54.037Z,7.90
2019-04-10T03:59:24.264Z,5.85
2019-04-10T04:01:53.642Z,4.53
2019-04-10T04:04:23.637Z,5.62
2019-04-10T04:06:52.845Z,3.10
2019-04-10T04:09:21.942Z,5.92
2019-04-10T04:11:51.034Z,5.47
2019-04-10T04:14:20.130Z,4.33
2019-04-10T04:16:49.227Z,7.55
2019-04-10T04:19:18.939Z,5.40
2019-04-10T04:21:48.187Z,5.12
2019-04-10T04:24:17.857Z,5.62
2019-04-10T04:26:47.241Z,4.65
2019-04-10T04:29:16.392Z,4.80
2019-04-10T04:31:46.063Z,5.28
2019-04-10T04:34:15.265Z,7.28
2019-04-10T04:36:45.101Z,6.65
2019-04-10T04:39:21.636Z,7.67
2019-04-10T04:41:45.218Z,6.40
2019-04-10T04:44:14.620Z,6.45
2019-04-10T04:46:44.898Z,5.72
2019-04-10T04:49:14.008Z,5.45
2019-04-10T04:51:43.754Z,6.15
2019-04-10T04:54:12.961Z,5.12
2019-04-10T04:56:42.255Z,4.75
2019-04-10T04:59:12.147Z,3.90
2019-04-10T05:01:42.434Z,4.20
2019-04-10T05:04:11.719Z,5.22
2019-04-10T05:06:41.761Z,3.90
2019-04-10T05:09:11.264Z,4.55
2019-04-10T05:11:41.202Z,5.33
2019-04-10T05:14:11.046Z,5.28
2019-04-10T05:16:40.198Z,5.10
2019-04-10T05:19:10.176Z,5.92
2019-04-10T05:21:39.723Z,4.62
2019-04-10T05:24:08.914Z,4.90
2019-04-10T05:26:38.009Z,3.62
2019-04-10T05:29:07.170Z,4.47
2019-04-10T05:31:36.711Z,4.55
2019-04-10T05:34:05.702Z,4.62
2019-04-10T05:36:34.797Z,4.10
2019-04-10T05:39:06.302Z,5.28
2019-04-10T05:41:35.781Z,4.55
2019-04-10T05:44:05.360Z,4.87
2019-04-10T05:46:34.259Z,4.92
2019-04-10T05:49:04.348Z,4.08
2019-04-10T05:51:34.898Z,4.47
2019-04-10T05:54:04.318Z,5.92
2019-04-10T05:56:34.245Z,4.40
2019-04-10T05:59:03.427Z,6.60
2019-04-10T06:01:38.072Z,5.45
2019-04-10T06:04:05.159Z,5.53
2019-04-10T06:06:35.095Z,4.60
2019-04-10T06:09:08.513Z,5.97
2019-04-10T06:11:42.975Z,4.53
2019-04-10T06:14:12.263Z,4.55
2019-04-10T06:16:44.615Z,5.80
2019-04-10T06:19:15.821Z,4.95
2019-04-10T06:21:48.078Z,5.92
2019-04-10T06:24:18.351Z,5.75
2019-04-10T06:26:50.109Z,5.97
2019-04-10T06:29:21.121Z,6.00
2019-04-10T06:31:51.201Z,3.70
2019-04-10T06:34:21.041Z,6.90
2019-04-10T06:36:51.558Z,4.53
2019-04-10T06:39:21.165Z,5.20
2019-04-10T06:41:51.785Z,5.42
2019-04-10T06:44:21.806Z,5.12
2019-04-10T06:46:53.612Z,4.42
2019-04-10T06:49:23.533Z,4.47
2019-04-10T06:51:53.459Z,4.20
2019-04-10T06:54:22.838Z,4.47
2019-04-10T06:56:52.754Z,4.15
2019-04-10T06:59:21.841Z,5.75
2019-04-10T07:01:56.386Z,7.78
2019-04-10T07:04:25.563Z,4.97
2019-04-10T07:07:04.672Z,5.42
2019-04-10T07:09:29.704Z,5.80
2019-04-10T07:12:01.746Z,6.80
2019-04-10T07:14:33.945Z,6.70
2019-04-10T07:17:06.743Z,5.78
2019-04-10T07:19:34.405Z,6.05
2019-04-10T07:22:11.925Z,6.42
2019-04-10T07:24:42.621Z,5.70
2019-04-10T07:27:12.409Z,5.17
2019-04-10T07:29:42.502Z,4.80
2019-04-10T07:32:13.381Z,4.33
2019-04-10T07:34:42.573Z,5.33
2019-04-10T07:37:14.916Z,4.47
2019-04-10T07:39:44.823Z,4.03
2019-04-10T07:42:26.024Z,4.65
2019-04-10T07:44:45.672Z,5.85
2019-04-10T07:47:17.380Z,4.95
2019-04-10T07:50:08.730Z,5.00
2019-04-10T07:52:39.404Z,4.08
2019-04-10T07:55:08.647Z,3.80
2019-04-10T07:57:38.796Z,6.03
2019-04-10T08:00:10.996Z,5.60
2019-04-10T08:02:40.641Z,5.20
2019-04-10T08:05:10.266Z,4.50
2019-04-10T08:07:40.451Z,5.75
2019-04-10T08:10:12.202Z,5.87
2019-04-10T08:12:47.364Z,5.72
2019-04-10T08:15:13.832Z,5.65
2019-04-10T08:17:44.540Z,5.67
2019-04-10T08:20:15.497Z,4.97
2019-04-10T08:22:45.447Z,4.65
2019-04-10T08:25:16.320Z,5.87
2019-04-10T08:27:45.985Z,5.50
2019-04-10T08:30:17.419Z,5.37
2019-04-10T08:32:57.123Z,4.78
2019-04-10T08:35:18.261Z,5.75
2019-04-10T08:37:48.700Z,5.45
2019-04-10T08:40:18.969Z,5.55
2019-04-10T08:42:49.203Z,6.15
2019-04-10T08:45:18.917Z,5.85
2019-04-10T08:47:48.676Z,5.47
2019-04-10T08:50:18.048Z,4.53
2019-04-10T08:52:47.358Z,4.85
2019-04-10T08:55:17.842Z,4.45
2019-04-10T08:57:47.079Z,5.20
2019-04-10T09:00:16.538Z,5.40
2019-04-10T09:02:46.435Z,4.28
2019-04-10T09:05:15.898Z,5.17
2019-04-10T09:07:45.005Z,5.42
2019-04-10T09:10:14.375Z,5.10
2019-04-10T09:12:43.590Z,5.80
2019-04-10T09:15:13.872Z,5.40
2019-04-10T09:17:43.802Z,4.97
2019-04-10T09:20:14.139Z,4.87
2019-04-10T09:23:07.605Z,5.12
2019-04-10T09:25:16.085Z,5.80
2019-04-10T09:27:44.738Z,5.78
2019-04-10T09:30:14.629Z,5.20
2019-04-10T09:32:44.393Z,5.20
2019-04-10T09:35:14.122Z,5.17
2019-04-10T09:37:43.446Z,4.47
2019-04-10T09:40:14.058Z,5.40
2019-04-10T09:42:43.825Z,5.28
2019-04-10T09:45:13.533Z,5.22
2019-04-10T09:47:43.836Z,5.87
2019-04-10T09:50:13.651Z,5.50
2019-04-10T09:52:43.927Z,4.80
2019-04-10T09:55:13.901Z,4.97
2019-04-10T09:57:43.200Z,5.60
2019-04-10T10:00:13.686Z,5.58
2019-04-10T10:02:42.805Z,5.35
2019-04-10T10:05:12.553Z,5.15
2019-04-10T10:07:41.799Z,5.55
2019-04-10T10:10:11.240Z,4.75
2019-04-10T10:12:40.785Z,5.97
2019-04-10T10:15:11.308Z,6.30
2019-04-10T10:17:41.222Z,5.87
2019-04-10T10:20:11.779Z,5.53
2019-04-10T10:22:41.119Z,5.12
2019-04-10T10:25:11.149Z,5.50
2019-04-10T10:27:42.682Z,4.85
2019-04-10T10:30:12.061Z,5.00
2019-04-10T10:32:42.263Z,4.20
2019-04-10T10:35:12.901Z,5.12
2019-04-10T10:37:42.877Z,5.83
2019-04-10T10:40:12.894Z,5.65
2019-04-10T10:42:43.525Z,5.33
2019-04-10T10:45:13.101Z,5.28
2019-04-10T10:47:42.268Z,5.12
2019-04-10T10:50:11.771Z,5.28
2019-04-10T10:52:41.711Z,5.03
2019-04-10T10:55:23.298Z,4.85
2019-04-10T10:57:52.262Z,5.62
2019-04-10T11:00:23.005Z,5.15
2019-04-10T11:02:52.045Z,5.12
2019-04-10T11:05:21.154Z,4.62
2019-04-10T11:07:51.519Z,5.47
2019-04-10T11:10:24.018Z,5.10
2019-04-10T11:12:53.446Z,4.92
2019-04-10T11:15:23.795Z,5.00
2019-04-10T11:17:53.852Z,4.67
2019-04-10T11:20:24.118Z,4.90
2019-04-10T11:22:53.631Z,4.85
2019-04-10T11:25:23.532Z,4.45
2019-04-10T11:27:53.937Z,4.55
2019-04-10T11:30:24.880Z,4.83
2019-04-10T11:32:54.934Z,4.37
2019-04-10T11:35:24.319Z,5.08
2019-04-10T11:37:56.189Z,4.70
2019-04-10T11:40:26.337Z,4.50
2019-04-10T11:42:55.583Z,5.00
2019-04-10T11:45:28.251Z,5.12
2019-04-10T11:47:56.460Z,4.70
2019-04-10T11:50:28.084Z,5.08
2019-04-10T11:52:58.962Z,5.05
2019-04-10T11:55:28.256Z,4.87
2019-04-10T11:57:59.922Z,5.58
2019-04-10T12:03:12.537Z,5.40
2019-04-10T12:05:42.284Z,4.83
2019-04-10T12:13:15.237Z,5.45
2019-04-10T12:15:43.161Z,6.12
2019-04-10T12:18:12.208Z,5.33
2019-04-10T12:20:41.160Z,5.62
2019-04-10T12:23:10.664Z,6.15
2019-04-10T12:25:39.867Z,6.08
2019-04-10T12:28:09.585Z,5.35
2019-04-10T12:30:39.489Z,6.22
2019-04-10T12:33:09.567Z,5.80
2019-04-10T12:35:38.825Z,4.78
2019-04-10T12:38:10.390Z,5.53
2019-04-10T12:40:40.297Z,5.83
2019-04-10T12:43:09.112Z,6.10
2019-04-10T12:45:38.181Z,6.92
2019-04-10T12:48:07.509Z,6.17
2019-04-10T12:50:36.961Z,6.22
2019-04-10T12:53:07.115Z,6.50
2019-04-10T12:55:36.737Z,5.85
2019-04-10T12:58:11.450Z,5.33
2019-04-10T13:00:42.869Z,5.28
2019-04-10T13:03:11.926Z,5.83
2019-04-10T13:05:41.135Z,5.70
2019-04-10T13:08:19.055Z,5.75
2019-04-10T13:10:40.745Z,5.70
2019-04-10T13:13:09.627Z,6.08
2019-04-10T13:15:40.931Z,5.85
2019-04-10T13:18:10.110Z,5.83
2019-04-10T13:20:39.924Z,5.78
2019-04-10T13:23:08.940Z,6.53
2019-04-10T13:25:38.603Z,6.80
2019-04-10T13:28:08.737Z,6.20
2019-04-10T13:30:46.940Z,5.83
2019-04-10T13:33:10.026Z,6.37
2019-04-10T13:35:39.788Z,5.28
2019-04-10T13:38:09.263Z,6.20
2019-04-10T13:40:38.244Z,6.72
2019-04-10T13:43:07.286Z,6.20
2019-04-10T13:45:36.177Z,5.47
2019-04-10T13:48:06.135Z,5.97
2019-04-10T13:50:35.206Z,6.12
2019-04-10T13:53:04.147Z,5.22
2019-04-10T13:55:33.023Z,5.28
2019-04-10T13:58:03.250Z,6.10
2019-04-10T14:00:39.855Z,6.08
2019-04-10T14:03:07.342Z,6.15
2019-04-10T14:05:36.937Z,6.12
2019-04-10T14:08:06.506Z,5.75
2019-04-10T14:10:36.206Z,5.87
2019-04-10T14:13:07.355Z,5.05
2019-04-10T14:15:36.350Z,5.45
2019-04-10T14:18:06.109Z,5.40
2019-04-10T14:20:35.421Z,5.60
2019-04-10T14:23:08.721Z,5.50
2019-04-10T14:25:40.013Z,5.22
2019-04-10T14:28:09.266Z,4.55
2019-04-10T14:30:39.791Z,5.85
2019-04-10T14:33:08.726Z,5.70
2019-04-10T14:35:37.662Z,5.37
2019-04-10T14:38:06.655Z,5.20
2019-04-10T14:40:36.201Z,4.95
2019-04-10T14:43:05.305Z,5.55
2019-04-10T14:45:35.439Z,5.40
2019-04-10T14:48:05.764Z,5.75
2019-04-10T14:50:34.921Z,5.40
2019-04-10T14:53:04.253Z,5.90
2019-04-10T14:55:33.647Z,5.30
2019-04-10T14:58:03.362Z,5.25
2019-04-10T15:00:46.717Z,4.65
2019-04-10T15:03:16.746Z,5.83
2019-04-10T15:05:50.911Z,5.37
2019-04-10T15:08:16.209Z,7.12
2019-04-10T15:10:45.142Z,7.35
2019-04-10T15:13:19.218Z,7.12
2019-04-10T15:15:44.914Z,6.80
2019-04-10T15:18:14.922Z,7.28
2019-04-10T15:20:45.227Z,6.62
2019-04-10T15:23:15.297Z,7.58
2019-04-10T15:25:44.468Z,8.08
2019-04-10T15:28:13.939Z,7.60
2019-04-10T15:30:44.467Z,7.45
2019-04-10T15:33:14.581Z,8.38
2019-04-10T15:35:44.678Z,8.55
2019-04-10T15:38:13.845Z,8.58
2019-04-10T15:40:43.980Z,8.55
2019-04-10T15:43:13.356Z,7.90
2019-04-10T15:45:42.323Z,8.68
2019-04-10T15:48:12.423Z,8.83
2019-04-10T15:50:41.918Z,8.65
2019-04-10T15:53:11.748Z,8.45
2019-04-10T15:55:41.163Z,8.68
2019-04-10T15:58:10.827Z,9.20
2019-04-10T16:00:40.000Z,7.85
2019-04-10T16:03:09.198Z,8.28
2019-04-10T16:05:39.805Z,8.38
2019-04-10T16:08:09.993Z,8.35
2019-04-10T16:10:52.998Z,8.25
2019-04-10T16:13:30.411Z,9.08
2019-04-10T16:16:01.632Z,8.80
2019-04-10T16:18:31.072Z,8.25
2019-04-10T16:21:00.031Z,9.70
2019-04-10T16:23:33.550Z,9.50
2019-04-10T16:26:02.868Z,8.53
2019-04-10T16:28:31.979Z,8.95
2019-04-10T16:31:01.412Z,8.75
2019-04-10T16:33:31.434Z,9.03
2019-04-10T16:36:00.957Z,8.18
2019-04-10T16:38:31.066Z,9.00
2019-04-10T16:41:00.503Z,8.58
2019-04-10T16:43:30.532Z,7.62
2019-04-10T16:45:59.947Z,7.25
2019-04-10T16:48:28.875Z,6.72
2019-04-10T16:50:57.781Z,7.78
2019-04-10T16:53:27.842Z,7.92
2019-04-10T16:55:57.567Z,7.72
2019-04-10T16:58:27.422Z,7.75
2019-04-10T17:00:57.941Z,7.85
2019-04-10T17:03:27.525Z,7.35
2019-04-10T17:05:57.717Z,7.85
2019-04-10T17:08:26.610Z,8.15
2019-04-10T17:10:56.702Z,6.95
2019-04-10T17:13:26.611Z,7.50
2019-04-10T17:15:55.746Z,6.83
2019-04-10T17:18:27.248Z,7.62
2019-04-10T17:20:57.522Z,7.17
2019-04-10T17:23:28.811Z,7.50
2019-04-10T17:26:00.449Z,6.70
2019-04-10T17:28:30.598Z,7.53
2019-04-10T17:31:00.898Z,7.45
2019-04-10T17:33:30.481Z,7.08
2019-04-10T17:36:00.550Z,7.05
2019-04-10T17:38:30.937Z,6.25
2019-04-10T17:41:04.125Z,7.35
2019-04-10T17:43:32.951Z,7.17
2019-04-10T17:46:02.767Z,6.95
2019-04-10T17:48:31.995Z,7.00
2019-04-10T17:51:01.652Z,7.10
2019-04-10T17:53:33.598Z,7.00
2019-04-10T17:56:06.189Z,6.97
2019-04-10T17:58:36.004Z,6.78
2019-04-10T18:01:06.620Z,6.78
2019-04-10T18:03:46.029Z,8.03
2019-04-10T18:06:06.895Z,7.03
2019-04-10T18:08:36.791Z,7.92
2019-04-10T18:11:05.940Z,7.10
2019-04-10T18:13:36.251Z,7.15
2019-04-10T18:16:05.264Z,6.28
2019-04-10T18:18:34.169Z,7.00
2019-04-10T18:21:03.106Z,7.37
2019-04-10T18:23:32.022Z,7.03
2019-04-10T18:26:00.951Z,6.60
2019-04-10T18:28:32.391Z,6.47
2019-04-10T18:31:00.696Z,6.10
2019-04-10T18:33:30.746Z,5.20
2019-04-10T18:35:59.986Z,6.12
2019-04-10T18:38:29.892Z,5.33
2019-04-10T18:41:03.408Z,5.72
2019-04-10T18:43:29.493Z,5.87
2019-04-10T18:46:07.874Z,5.42
2019-04-10T18:48:29.028Z,5.00
2019-04-10T18:50:57.987Z,5.70
2019-04-10T18:53:28.925Z,6.00
2019-04-10T18:55:58.039Z,6.17
2019-04-10T18:58:29.682Z,6.28
2019-04-10T19:01:14.266Z,5.17
2019-04-10T19:03:56.306Z,5.80
2019-04-10T19:06:25.318Z,5.28
2019-04-10T19:09:06.431Z,5.00
2019-04-10T19:11:26.785Z,4.78
2019-04-10T19:13:55.504Z,5.03
2019-04-10T19:16:26.286Z,5.08
2019-04-10T19:18:55.632Z,4.87
2019-04-10T19:21:25.799Z,5.87
2019-04-10T19:23:55.594Z,5.90
2019-04-10T19:26:24.743Z,5.45
2019-04-10T19:28:53.839Z,6.05
2019-04-10T19:31:24.741Z,5.37
2019-04-10T19:33:54.102Z,5.80
2019-04-10T19:36:23.916Z,5.75
2019-04-10T19:38:53.728Z,5.70
2019-04-10T19:41:29.726Z,5.35
2019-04-10T19:43:54.803Z,6.05
2019-04-10T19:46:23.944Z,6.62
2019-04-10T19:48:53.550Z,7.78
2019-04-10T19:51:23.738Z,6.12
2019-04-10T19:53:53.365Z,5.58
2019-04-10T19:56:22.473Z,6.97
2019-04-10T19:58:52.313Z,7.00
2019-04-10T20:01:21.327Z,5.72
2019-04-10T20:03:52.157Z,6.05
2019-04-10T20:06:23.493Z,5.40
2019-04-10T20:08:52.268Z,6.75
2019-04-10T20:11:31.892Z,5.42
2019-04-10T20:13:51.911Z,4.97
2019-04-10T20:16:20.798Z,6.30
2019-04-10T20:18:50.798Z,6.58
2019-04-10T20:21:19.978Z,5.20
2019-04-10T20:23:49.343Z,5.08
2019-04-10T20:26:18.866Z,5.30
2019-04-10T20:28:49.738Z,5.95
2019-04-10T20:31:23.579Z,6.87
2019-04-10T20:33:53.206Z,6.67
2019-04-10T20:36:27.169Z,6.17
2019-04-10T20:38:56.993Z,6.90
2019-04-10T20:41:28.777Z,6.72
2019-04-10T20:43:57.988Z,6.00
2019-04-10T20:46:28.406Z,5.70
2019-04-10T20:48:58.267Z,6.03
2019-04-10T20:51:28.301Z,6.12
2019-04-10T20:53:58.089Z,5.08
2019-04-10T20:56:27.095Z,6.42
2019-04-10T20:58:56.108Z,6.20
2019-04-10T21:01:25.033Z,6.65
2019-04-10T21:03:53.979Z,6.60
2019-04-10T21:06:24.091Z,5.65
2019-04-10T21:08:54.372Z,5.35
2019-04-10T21:11:24.726Z,5.85
2019-04-10T21:13:54.494Z,7.20
2019-04-10T21:16:25.267Z,6.05
2019-04-10T21:18:54.445Z,4.17
2019-04-10T21:21:26.449Z,6.03
2019-04-10T21:23:56.502Z,5.47
2019-04-10T21:26:26.886Z,7.85
2019-04-10T21:28:55.902Z,6.22
2019-04-10T21:31:42.912Z,5.78
2019-04-10T21:34:19.761Z,6.28
2019-04-10T21:36:49.173Z,6.17
2019-04-10T21:39:19.085Z,5.25
2019-04-10T21:41:48.823Z,7.00
2019-04-10T21:44:18.296Z,6.70
2019-04-10T21:46:47.263Z,5.85
2019-04-10T21:49:16.198Z,6.03
2019-04-10T21:51:45.323Z,6.12
2019-04-10T21:54:14.269Z,7.15
2019-04-10T21:56:43.210Z,5.92
2019-04-10T21:59:13.098Z,5.87
2019-04-10T22:01:43.257Z,6.22
2019-04-10T22:04:12.489Z,7.15
2019-04-10T22:07:01.526Z,6.97
2019-04-10T22:09:45.211Z,6.15
2019-04-10T22:12:26.835Z,6.80
2019-04-10T22:14:50.232Z,6.30
2019-04-10T22:17:20.354Z,5.80
2019-04-10T22:19:50.734Z,6.37
2019-04-10T22:22:20.291Z,6.58
2019-04-10T22:24:50.501Z,5.30
2019-04-10T22:27:19.654Z,6.45
2019-04-10T22:29:48.526Z,6.75
2019-04-10T22:32:18.546Z,6.37
2019-04-10T22:34:47.668Z,5.92
2019-04-10T22:37:16.915Z,6.50
2019-04-10T22:39:46.087Z,6.10
2019-04-10T22:42:15.527Z,5.53
2019-04-10T22:44:45.660Z,6.22
2019-04-10T22:47:14.994Z,6.22
2019-04-10T22:49:45.042Z,5.33
2019-04-10T22:52:15.427Z,5.47
2019-04-10T22:54:44.465Z,5.75
2019-04-10T22:57:14.491Z,6.33
2019-04-10T22:59:43.554Z,6.97
2019-04-10T23:02:14.703Z,4.92
2019-04-10T23:04:43.046Z,7.33
2019-04-10T23:07:11.983Z,5.35
2019-04-10T23:09:40.871Z,4.70
2019-04-10T23:12:11.209Z,5.50
2019-04-10T23:14:42.724Z,5.30
2019-04-10T23:17:12.618Z,6.47
2019-04-10T23:19:42.515Z,4.75
2019-04-10T23:22:11.825Z,4.70
2019-04-10T23:24:40.885Z,4.85
2019-04-10T23:27:09.766Z,4.37
2019-04-10T23:29:38.842Z,4.83
2019-04-10T23:32:07.760Z,7.15
2019-04-10T23:34:36.820Z,6.70
2019-04-10T23:37:06.683Z,5.80
2019-04-10T23:39:36.521Z,5.50
2019-04-10T23:42:06.142Z,6.42
2019-04-10T23:44:35.948Z,6.65
2019-04-10T23:47:04.981Z,7.75
2019-04-10T23:49:33.898Z,6.03
2019-04-10T23:52:03.327Z,5.83
2019-04-10T23:54:33.341Z,5.62
2019-04-10T23:57:03.174Z,5.42
2019-04-10T23:59:32.990Z,6.08
